Time;durP1;ratioP1;P1;durP2;ratioP2;P2;SDS_P1;SDS_P2;PMS_P1;PMS_P2;Temp;Humidity;BMP_temperature;BMP_pressure;BME280_temperature;BME280_humidity;BME280_pressure;Samples;Min_cycle;Max_cycle;Signal;HPM_P1;HPM_P2
2023/09/19 00:00:21;;;;;;;4.38;0.90;;;;;;;;;;5050147;28;20044;-75
2023/09/19 00:02:59;;;;;;;5.07;1.15;;;;;;;;;;5049977;28;20045;-74
2023/09/19 00:05:29;;;;;;;2.55;0.90;;;;;;;;;;5050067;28;20041;-74
2023/09/19 00:08:00;;;;;;;2.78;0.90;;;;;;;;;;5049818;28;20053;-74
2023/09/19 00:10:34;;;;;;;;;;;;;;;;;;5050689;28;20072;-74
2023/09/19 00:13:05;;;;;;;1.88;0.73;;;;;;;;;;5050285;28;19921;-75
2023/09/19 00:15:41;;;;;;;3.60;0.82;;;;;;;;;;5050200;28;20045;-75
2023/09/19 00:18:11;;;;;;;3.00;0.77;;;;;;;;;;5049541;28;20052;-74
2023/09/19 00:20:38;;;;;;;3.13;0.70;;;;;;;;;;5049834;28;20057;-74
2023/09/19 00:23:08;;;;;;;2.92;0.82;;;;;;;;;;5049604;28;20047;-74
2023/09/19 00:25:38;;;;;;;3.25;1.00;;;;;;;;;;5049941;28;20540;-74
2023/09/19 00:28:06;;;;;;;4.15;0.85;;;;;;;;;;5049330;28;20447;-74
2023/09/19 00:30:38;;;;;;;1.73;0.57;;;;;;;;;;5049760;28;20594;-74
2023/09/19 00:33:07;;;;;;;2.10;0.63;;;;;;;;;;5049605;28;20041;-73
2023/09/19 00:35:34;;;;;;;2.60;0.80;;;;;;;;;;5049646;28;20639;-74
2023/09/19 00:38:01;;;;;;;1.98;0.90;;;;;;;;;;5049616;28;20055;-74
2023/09/19 00:40:29;;;;;;;4.95;1.05;;;;;;;;;;5049548;28;20064;-74
2023/09/19 00:43:02;;;;;;;1.35;0.70;;;;;;;;;;5049333;28;20041;-74
2023/09/19 00:45:29;;;;;;;2.35;0.70;;;;;;;;;;5049734;28;20073;-74
2023/09/19 00:47:57;;;;;;;2.53;0.88;;;;;;;;;;5049264;28;20530;-75
2023/09/19 00:50:26;;;;;;;3.35;0.93;;;;;;;;;;5049223;28;20063;-74
2023/09/19 00:52:57;;;;;;;5.43;0.90;;;;;;;;;;5049125;28;20045;-74
2023/09/19 00:55:25;;;;;;;7.72;1.25;;;;;;;;;;5049341;28;20143;-74
2023/09/19 00:57:52;;;;;;;4.40;0.90;;;;;;;;;;5049300;28;20102;-75
2023/09/19 01:00:20;;;;;;;5.57;1.15;;;;;;;;;;5049500;28;20052;-74
2023/09/19 01:02:48;;;;;;;3.75;0.98;;;;;;;;;;5049662;28;20044;-74
2023/09/19 01:05:15;;;;;;;2.17;0.88;;;;;;;;;;5055817;28;20051;-75
2023/09/19 01:07:48;;;;;;;5.32;0.93;;;;;;;;;;5055284;28;20527;-74
2023/09/19 01:10:20;;;;;;;3.42;0.93;;;;;;;;;;5056112;28;20055;-75
2023/09/19 01:12:50;;;;;;;1.83;0.80;;;;;;;;;;5055850;28;20047;-75
2023/09/19 01:15:40;;;;;;;3.30;0.80;;;;;;;;;;5055824;28;20499;-74
2023/09/19 01:18:07;;;;;;;2.33;0.80;;;;;;;;;;5055790;28;20067;-75
2023/09/19 01:20:53;;;;;;;4.13;0.90;;;;;;;;;;5055847;28;20501;-75
2023/09/19 01:23:26;;;;;;;3.10;1.00;;;;;;;;;;5055849;28;20045;-73
2023/09/19 01:25:59;;;;;;;2.25;0.90;;;;;;;;;;5056077;28;20045;-72
2023/09/19 01:28:54;;;;;;;2.47;0.75;;;;;;;;;;5055237;28;20049;-74
2023/09/19 01:31:23;;;;;;;1.90;0.80;;;;;;;;;;5055734;28;20463;-74
2023/09/19 01:34:03;;;;;;;2.97;1.00;;;;;;;;;;5055474;28;20505;-74
2023/09/19 01:36:35;;;;;;;3.90;0.80;;;;;;;;;;5055941;28;20337;-73
2023/09/19 01:39:12;;;;;;;1.70;0.85;;;;;;;;;;5055333;28;20072;-73
2023/09/19 01:41:58;;;;;;;2.30;0.95;;;;;;;;;;5055960;28;20071;-74
2023/09/19 01:44:36;;;;;;;2.55;0.80;;;;;;;;;;5037618;28;20059;-74
2023/09/19 01:47:17;;;;;;;4.63;1.10;;;;;;;;;;5055688;28;20048;-74
2023/09/19 01:49:46;;;;;;;;;;;;;;;;;;5055564;28;20068;-74
2023/09/19 01:52:13;;;;;;;4.15;0.75;;;;;;;;;;5055830;28;20064;-74
2023/09/19 01:54:50;;;;;;;2.95;0.80;;;;;;;;;;5055251;28;20528;-74
2023/09/19 01:57:28;;;;;;;2.90;0.80;;;;;;;;;;5055786;28;20041;-75
2023/09/19 02:00:06;;;;;;;3.58;1.00;;;;;;;;;;5055515;28;20472;-74
2023/09/19 02:02:37;;;;;;;4.50;1.00;;;;;;;;;;5055865;28;20041;-74
2023/09/19 02:05:05;;;;;;;4.43;0.90;;;;;;;;;;5055889;28;20099;-74
2023/09/19 02:07:32;;;;;;;6.10;0.90;;;;;;;;;;5055428;28;20465;-74
2023/09/19 02:10:05;;;;;;;2.92;0.70;;;;;;;;;;5055343;28;20067;-74
2023/09/19 02:12:35;;;;;;;3.28;1.00;;;;;;;;;;5055928;28;20056;-74
2023/09/19 02:15:02;;;;;;;;;;;;;;;;;;5053630;28;20056;-74
2023/09/19 02:17:31;;;;;;;5.40;0.98;;;;;;;;;;5052321;28;19920;-75
2023/09/19 02:19:58;;;;;;;3.28;0.80;;;;;;;;;;5052195;28;20052;-75
2023/09/19 02:22:25;;;;;;;2.78;1.00;;;;;;;;;;5052252;28;20049;-75
2023/09/19 02:24:53;;;;;;;4.35;0.80;;;;;;;;;;5051991;28;20540;-74
2023/09/19 02:27:20;;;;;;;2.88;1.02;;;;;;;;;;5051975;28;20582;-74
2023/09/19 02:29:47;;;;;;;4.45;0.88;;;;;;;;;;5051562;28;20048;-75
2023/09/19 02:32:14;;;;;;;4.47;0.90;;;;;;;;;;5052250;28;20045;-74
2023/09/19 02:34:41;;;;;;;3.50;0.70;;;;;;;;;;5051823;28;20120;-74
2023/09/19 02:37:08;;;;;;;4.35;0.85;;;;;;;;;;5051757;28;20045;-74
2023/09/19 02:39:35;;;;;;;1.90;0.70;;;;;;;;;;5051368;28;20382;-75
2023/09/19 02:42:03;;;;;;;2.47;0.80;;;;;;;;;;5051944;28;20103;-74
2023/09/19 02:44:30;;;;;;;2.03;0.80;;;;;;;;;;5051795;28;20124;-74
2023/09/19 02:46:57;;;;;;;4.32;0.93;;;;;;;;;;5051844;28;20521;-74
2023/09/19 02:49:24;;;;;;;3.25;0.77;;;;;;;;;;5050869;28;20049;-74
2023/09/19 02:51:51;;;;;;;1.48;0.68;;;;;;;;;;5051919;28;20131;-73
2023/09/19 02:54:19;;;;;;;2.00;0.80;;;;;;;;;;5051319;28;20044;-74
2023/09/19 02:56:47;;;;;;;2.28;0.60;;;;;;;;;;5051740;28;20124;-73
2023/09/19 02:59:14;;;;;;;2.50;0.88;;;;;;;;;;5051340;28;20053;-74
2023/09/19 03:01:43;;;;;;;4.55;1.00;;;;;;;;;;5051756;28;20056;-74
2023/09/19 03:04:11;;;;;;;2.38;0.90;;;;;;;;;;5051379;28;20048;-74
2023/09/19 03:06:41;;;;;;;3.90;1.23;;;;;;;;;;5051355;28;20467;-74
2023/09/19 03:09:13;;;;;;;3.65;0.90;;;;;;;;;;5050924;28;20053;-74
2023/09/19 03:11:41;;;;;;;2.97;1.00;;;;;;;;;;5051077;28;20401;-74
2023/09/19 03:14:10;;;;;;;3.13;1.00;;;;;;;;;;5051236;28;20049;-74
2023/09/19 03:16:38;;;;;;;3.38;1.00;;;;;;;;;;5051287;28;20037;-74
2023/09/19 03:19:05;;;;;;;4.93;1.05;;;;;;;;;;5051110;28;20083;-74
2023/09/19 03:21:31;;;;;;;1.90;0.80;;;;;;;;;;5050918;28;20033;-74
2023/09/19 03:23:58;;;;;;;3.88;1.10;;;;;;;;;;5051184;28;20632;-74
2023/09/19 03:26:26;;;;;;;1.88;0.90;;;;;;;;;;5050578;28;20045;-75
2023/09/19 03:28:54;;;;;;;3.47;0.90;;;;;;;;;;5050698;28;20048;-73
2023/09/19 03:31:20;;;;;;;4.63;0.80;;;;;;;;;;5050693;28;20404;-74
2023/09/19 03:33:47;;;;;;;1.52;0.80;;;;;;;;;;5050783;28;20128;-75
2023/09/19 03:36:14;;;;;;;2.88;0.93;;;;;;;;;;5050795;28;20501;-73
2023/09/19 03:38:41;;;;;;;2.33;0.90;;;;;;;;;;5050829;28;20056;-73
2023/09/19 03:41:08;;;;;;;10.27;1.20;;;;;;;;;;5050768;28;20421;-74
2023/09/19 03:43:34;;;;;;;2.03;0.85;;;;;;;;;;5050885;28;20056;-74
2023/09/19 03:46:03;;;;;;;2.33;0.75;;;;;;;;;;5050239;28;20124;-72
2023/09/19 03:48:31;;;;;;;2.78;0.82;;;;;;;;;;5050669;28;20045;-74
2023/09/19 03:50:57;;;;;;;3.33;0.90;;;;;;;;;;5050286;28;20053;-74
2023/09/19 03:53:24;;;;;;;3.08;0.90;;;;;;;;;;5050955;28;20079;-74
2023/09/19 03:55:51;;;;;;;5.68;1.05;;;;;;;;;;5050797;28;20049;-74
2023/09/19 03:58:17;;;;;;;2.17;1.00;;;;;;;;;;5050474;28;20572;-74
2023/09/19 04:00:44;;;;;;;3.78;1.17;;;;;;;;;;5050155;28;20080;-75
2023/09/19 04:03:19;;;;;;;2.42;0.80;;;;;;;;;;5032522;28;20049;-75
2023/09/19 04:05:47;;;;;;;3.90;0.85;;;;;;;;;;5050214;28;20079;-74
2023/09/19 04:08:14;;;;;;;4.22;0.88;;;;;;;;;;5050000;28;20045;-75
2023/09/19 04:10:45;;;;;;;3.35;0.93;;;;;;;;;;5049999;28;20116;-75
2023/09/19 04:13:12;;;;;;;2.85;0.98;;;;;;;;;;5050084;28;20045;-74
2023/09/19 04:15:40;;;;;;;5.75;1.10;;;;;;;;;;5049820;28;20051;-74
2023/09/19 04:18:06;;;;;;;2.60;1.00;;;;;;;;;;5050230;28;20048;-74
2023/09/19 04:20:33;;;;;;;6.93;1.42;;;;;;;;;;5049369;28;20045;-74
2023/09/19 04:23:00;;;;;;;4.95;0.95;;;;;;;;;;5050036;28;20049;-74
2023/09/19 04:25:27;;;;;;;1.70;0.93;;;;;;;;;;5049826;28;20052;-73
2023/09/19 04:27:54;;;;;;;2.83;0.95;;;;;;;;;;5049812;28;20055;-75
2023/09/19 04:30:21;;;;;;;2.10;0.63;;;;;;;;;;5049651;28;20045;-74
2023/09/19 04:32:50;;;;;;;3.88;0.80;;;;;;;;;;5049827;28;20045;-74
2023/09/19 04:35:18;;;;;;;2.08;0.82;;;;;;;;;;5049695;28;20124;-74
2023/09/19 04:37:45;;;;;;;1.80;0.70;;;;;;;;;;5049234;28;20110;-74
2023/09/19 04:40:17;;;;;;;5.75;0.98;;;;;;;;;;5048961;28;20060;-74
2023/09/19 04:42:45;;;;;;;1.83;0.65;;;;;;;;;;5049919;28;20128;-73
2023/09/19 04:45:12;;;;;;;2.92;0.85;;;;;;;;;;5049295;28;20051;-74
2023/09/19 04:47:39;;;;;;;3.35;1.00;;;;;;;;;;5049651;28;20056;-74
2023/09/19 04:50:11;;;;;;;1.88;0.80;;;;;;;;;;5049028;28;20052;-74
2023/09/19 04:52:42;;;;;;;3.50;0.90;;;;;;;;;;5049518;28;20539;-74
2023/09/19 04:55:10;;;;;;;1.98;0.63;;;;;;;;;;5049295;28;20049;-75
2023/09/19 04:57:37;;;;;;;3.15;0.88;;;;;;;;;;5049289;28;20520;-75
2023/09/19 05:00:12;;;;;;;2.20;0.95;;;;;;;;;;5049428;28;20060;-75
2023/09/19 05:02:39;;;;;;;3.90;0.80;;;;;;;;;;5049628;28;20084;-75
2023/09/19 05:05:10;;;;;;;2.90;0.82;;;;;;;;;;5049400;28;20132;-74
2023/09/19 05:07:40;;;;;;;2.05;1.20;;;;;;;;;;5049054;28;20045;-69
2023/09/19 05:10:07;;;;;;;3.80;1.10;;;;;;;;;;5049402;28;20202;-74
2023/09/19 05:12:35;;;;;;;3.20;0.80;;;;;;;;;;5049026;28;20041;-74
2023/09/19 05:15:07;;;;;;;2.20;1.00;;;;;;;;;;5049228;28;20408;-74
2023/09/19 05:17:34;;;;;;;3.40;0.93;;;;;;;;;;5049100;28;20688;-73
2023/09/19 05:20:15;;;;;;;2.95;1.02;;;;;;;;;;5049113;28;20106;-74
2023/09/19 05:22:43;;;;;;;4.25;0.93;;;;;;;;;;5049278;28;20239;-74
2023/09/19 05:25:10;;;;;;;3.40;0.82;;;;;;;;;;5049376;28;20102;-75
2023/09/19 05:27:37;;;;;;;4.28;1.00;;;;;;;;;;5048900;28;20064;-74
2023/09/19 05:30:04;;;;;;;4.80;0.90;;;;;;;;;;5048795;28;20049;-74
2023/09/19 05:32:31;;;;;;;2.88;1.00;;;;;;;;;;5048794;28;20055;-75
2023/09/19 05:34:58;;;;;;;2.55;1.10;;;;;;;;;;5049282;28;20044;-75
2023/09/19 05:37:26;;;;;;;4.50;1.02;;;;;;;;;;5048981;28;20045;-74
2023/09/19 05:39:57;;;;;;;5.38;1.08;;;;;;;;;;5049042;28;20049;-74
2023/09/19 05:42:24;;;;;;;2.67;1.00;;;;;;;;;;5049043;28;20049;-72
2023/09/19 05:44:50;;;;;;;4.32;1.23;;;;;;;;;;5049245;28;20045;-74
2023/09/19 05:47:18;;;;;;;5.13;1.00;;;;;;;;;;5048658;28;20135;-73
2023/09/19 05:49:44;;;;;;;1.88;1.00;;;;;;;;;;5049366;28;20049;-74
2023/09/19 05:52:11;;;;;;;8.70;3.10;;;;;;;;;;5052621;28;20049;-72
2023/09/19 05:54:38;;;;;;;6.47;3.03;;;;;;;;;;5052637;28;20442;-73
2023/09/19 05:57:04;;;;;;;4.45;1.52;;;;;;;;;;5052463;28;20048;-73
2023/09/19 05:59:33;;;;;;;3.65;1.05;;;;;;;;;;5052634;28;20049;-74
2023/09/19 06:02:00;;;;;;;3.35;1.10;;;;;;;;;;5052685;28;20052;-72
2023/09/19 06:04:27;;;;;;;4.03;1.13;;;;;;;;;;5052828;28;20126;-70
2023/09/19 06:06:54;;;;;;;2.47;1.00;;;;;;;;;;5052290;28;20126;-72
2023/09/19 06:09:23;;;;;;;2.65;0.98;;;;;;;;;;5052388;28;20056;-73
2023/09/19 06:11:49;;;;;;;2.22;0.82;;;;;;;;;;5052300;28;20044;-72
2023/09/19 06:14:17;;;;;;;3.25;1.15;;;;;;;;;;5052360;28;20118;-74
2023/09/19 06:16:45;;;;;;;3.53;1.15;;;;;;;;;;5052311;28;20188;-74
2023/09/19 06:19:12;;;;;;;3.80;1.13;;;;;;;;;;5034956;28;20045;-74
2023/09/19 06:21:38;;;;;;;3.80;0.95;;;;;;;;;;5052524;28;20132;-73
2023/09/19 06:24:05;;;;;;;4.38;1.13;;;;;;;;;;5052155;28;20536;-74
2023/09/19 06:26:32;;;;;;;3.67;0.93;;;;;;;;;;5051790;28;20758;-73
2023/09/19 06:28:59;;;;;;;4.32;1.08;;;;;;;;;;5052172;28;20056;-74
2023/09/19 06:31:26;;;;;;;3.28;1.20;;;;;;;;;;5034006;28;20131;-73
2023/09/19 06:33:53;;;;;;;3.67;1.10;;;;;;;;;;5052101;28;20131;-74
2023/09/19 06:36:20;;;;;;;3.95;1.00;;;;;;;;;;5052089;28;20068;-74
2023/09/19 06:38:47;;;;;;;1.90;0.80;;;;;;;;;;5051803;28;20429;-73
2023/09/19 06:41:15;;;;;;;2.58;1.20;;;;;;;;;;5034147;28;20543;-74
2023/09/19 06:43:42;;;;;;;3.85;1.00;;;;;;;;;;5051686;28;20044;-73
2023/09/19 06:46:09;;;;;;;3.05;0.88;;;;;;;;;;5051693;28;20604;-74
2023/09/19 06:48:36;;;;;;;2.67;1.05;;;;;;;;;;5051798;28;20045;-73
2023/09/19 06:51:05;;;;;;;2.53;1.05;;;;;;;;;;5051172;28;20052;-73
2023/09/19 06:53:34;;;;;;;3.03;1.00;;;;;;;;;;5051362;28;20068;-72
2023/09/19 06:56:02;;;;;;;5.28;1.10;;;;;;;;;;5051581;28;20075;-73
2023/09/19 06:58:28;;;;;;;3.00;1.00;;;;;;;;;;5051570;28;20068;-74
2023/09/19 07:00:56;;;;;;;3.67;1.33;;;;;;;;;;5050745;28;20416;-74
2023/09/19 07:03:26;;;;;;;5.20;1.90;;;;;;;;;;5051039;28;20053;-73
2023/09/19 07:05:52;;;;;;;3.45;1.20;;;;;;;;;;5051599;28;20053;-73
2023/09/19 07:08:19;;;;;;;2.28;0.88;;;;;;;;;;5051316;28;20049;-74
2023/09/19 07:10:49;;;;;;;3.25;0.95;;;;;;;;;;5051441;28;20044;-73
2023/09/19 07:13:17;;;;;;;5.33;1.10;;;;;;;;;;5051020;28;20150;-73
2023/09/19 07:15:47;;;;;;;4.50;1.00;;;;;;;;;;5051539;28;20049;-71
2023/09/19 07:18:14;;;;;;;2.27;0.90;;;;;;;;;;5051206;28;20053;-74
2023/09/19 07:20:47;;;;;;;2.70;0.80;;;;;;;;;;5051054;28;20097;-74
2023/09/19 07:23:21;;;;;;;3.70;1.17;;;;;;;;;;5050977;28;20048;-74
2023/09/19 07:25:49;;;;;;;3.40;0.98;;;;;;;;;;5051151;28;20509;-74
2023/09/19 07:28:16;;;;;;;2.05;0.88;;;;;;;;;;5050635;28;20413;-74
2023/09/19 07:30:42;;;;;;;2.30;1.17;;;;;;;;;;5050909;28;20049;-73
2023/09/19 07:33:12;;;;;;;5.63;1.10;;;;;;;;;;5050638;28;20048;-74
2023/09/19 07:35:42;;;;;;;3.10;0.98;;;;;;;;;;5050850;28;20456;-74
2023/09/19 07:38:11;;;;;;;3.45;1.45;;;;;;;;;;5050659;28;20052;-74
2023/09/19 07:40:39;;;;;;;3.10;1.13;;;;;;;;;;5050762;28;20140;-73
2023/09/19 07:43:06;;;;;;;3.30;1.15;;;;;;;;;;5050739;28;20049;-74
2023/09/19 07:45:33;;;;;;;2.70;1.02;;;;;;;;;;5050711;28;20489;-73
2023/09/19 07:48:04;;;;;;;3.58;1.20;;;;;;;;;;5050723;28;20040;-74
2023/09/19 07:50:31;;;;;;;3.90;1.20;;;;;;;;;;5050358;28;20168;-74
2023/09/19 07:52:58;;;;;;;3.88;1.33;;;;;;;;;;5049995;28;20052;-74
2023/09/19 07:55:25;;;;;;;3.45;1.00;;;;;;;;;;5050358;28;20061;-74
2023/09/19 07:57:53;;;;;;;4.85;0.95;;;;;;;;;;5050263;28;20107;-73
2023/09/19 08:00:20;;;;;;;4.10;1.08;;;;;;;;;;5050488;28;20079;-74
2023/09/19 08:02:47;;;;;;;5.07;1.00;;;;;;;;;;5050196;28;20049;-74
2023/09/19 08:05:24;;;;;;;5.82;1.38;;;;;;;;;;5050368;28;20053;-74
2023/09/19 08:07:52;;;;;;;5.35;1.67;;;;;;;;;;5050283;28;20049;-74
2023/09/19 08:10:19;;;;;;;3.33;1.20;;;;;;;;;;5049982;28;20084;-74
2023/09/19 08:12:47;;;;;;;3.88;1.08;;;;;;;;;;5049050;28;20448;-73
2023/09/19 08:15:21;;;;;;;5.72;0.88;;;;;;;;;;5050000;28;20045;-74
2023/09/19 08:17:48;;;;;;;2.92;0.95;;;;;;;;;;5050179;28;20048;-74
2023/09/19 08:20:18;;;;;;;6.90;1.35;;;;;;;;;;5050287;28;20128;-73
2023/09/19 08:22:54;;;;;;;3.20;0.77;;;;;;;;;;5049639;28;20067;-73
2023/09/19 08:25:23;;;;;;;3.35;0.82;;;;;;;;;;5050241;28;20051;-73
2023/09/19 08:27:50;;;;;;;5.70;1.25;;;;;;;;;;5049677;28;20056;-74
2023/09/19 08:30:20;;;;;;;2.67;0.82;;;;;;;;;;5049667;28;20055;-74
2023/09/19 08:32:47;;;;;;;6.38;1.20;;;;;;;;;;5049315;28;20044;-75
2023/09/19 08:35:14;;;;;;;7.50;1.23;;;;;;;;;;5049903;28;20491;-73
2023/09/19 08:37:42;;;;;;;3.53;0.90;;;;;;;;;;5049429;28;20524;-74
2023/09/19 08:40:09;;;;;;;7.38;2.67;;;;;;;;;;5049784;28;20088;-74
2023/09/19 08:42:53;;;;;;;4.55;1.05;;;;;;;;;;5049424;28;20509;-74
2023/09/19 08:45:27;;;;;;;3.20;1.00;;;;;;;;;;5049741;28;20048;-74
2023/09/19 08:48:03;;;;;;;1.90;0.80;;;;;;;;;;5049637;28;20045;-73
2023/09/19 08:50:31;;;;;;;3.72;1.08;;;;;;;;;;5049085;28;20180;-73
2023/09/19 08:53:01;;;;;;;2.97;1.00;;;;;;;;;;5049166;28;20128;-74
2023/09/19 08:55:29;;;;;;;2.60;0.88;;;;;;;;;;5049801;28;20041;-74
2023/09/19 08:58:06;;;;;;;2.63;0.90;;;;;;;;;;5049279;28;20057;-73
2023/09/19 09:00:35;;;;;;;2.90;0.90;;;;;;;;;;5031803;28;20497;-74
2023/09/19 09:03:03;;;;;;;3.72;0.80;;;;;;;;;;5049181;28;20084;-74
2023/09/19 09:05:32;;;;;;;4.97;0.93;;;;;;;;;;5049703;28;20049;-73
2023/09/19 09:08:00;;;;;;;2.70;0.82;;;;;;;;;;5049153;28;20447;-75
2023/09/19 09:10:26;;;;;;;4.30;0.90;;;;;;;;;;5049324;28;20132;-73
2023/09/19 09:12:55;;;;;;;1.25;0.70;;;;;;;;;;5048994;28;20049;-73
2023/09/19 09:15:23;;;;;;;6.55;1.00;;;;;;;;;;5049050;28;20049;-73
2023/09/19 09:17:52;;;;;;;2.67;0.93;;;;;;;;;;5049313;28;20464;-73
2023/09/19 09:20:20;;;;;;;2.20;0.68;;;;;;;;;;5049366;28;20041;-72
2023/09/19 09:22:54;;;;;;;4.90;1.13;;;;;;;;;;5049171;28;20064;-73
2023/09/19 09:25:47;;;;;;;4.57;1.42;;;;;;;;;;5051414;28;20481;-72
2023/09/19 09:28:20;;;;;;;3.55;1.02;;;;;;;;;;5053229;28;20075;-73
2023/09/19 09:30:46;;;;;;;2.00;0.70;;;;;;;;;;5053352;28;20048;-73
2023/09/19 09:33:15;;;;;;;2.25;0.80;;;;;;;;;;5053233;28;20053;-74
2023/09/19 09:35:56;;;;;;;2.15;0.80;;;;;;;;;;5053448;28;20124;-73
2023/09/19 09:38:27;;;;;;;3.97;0.88;;;;;;;;;;5052977;28;20099;-72
2023/09/19 09:41:16;;;;;;;2.60;0.77;;;;;;;;;;5053333;28;20168;-73
2023/09/19 09:43:46;;;;;;;2.38;0.80;;;;;;;;;;5052426;28;20060;-73
2023/09/19 09:51:59;;;;;;;4.00;0.90;;;;;;;;;;5052470;28;20472;-73
2023/09/19 09:54:33;;;;;;;2.85;0.63;;;;;;;;;;5034988;28;20045;-73
2023/09/19 09:57:13;;;;;;;3.35;0.90;;;;;;;;;;5052710;28;20045;-74
2023/09/19 10:00:15;;;;;;;3.38;1.10;;;;;;;;;;5052320;28;20132;-74
2023/09/19 10:02:45;;;;;;;7.80;1.50;;;;;;;;;;5052511;28;20095;-71
2023/09/19 10:07:53;;;;;;;4.07;0.90;;;;;;;;;;5052526;28;20045;-73
2023/09/19 10:13:21;;;;;;;2.70;0.70;;;;;;;;;;5052547;28;20048;-72
2023/09/19 10:15:50;;;;;;;3.28;0.75;;;;;;;;;;5052030;28;20511;-73
2023/09/19 10:18:23;;;;;;;2.35;0.70;;;;;;;;;;5052437;28;20051;-73
2023/09/19 10:20:50;;;;;;;4.72;0.90;;;;;;;;;;5052009;28;20045;-73
2023/09/19 10:23:23;;;;;;;4.10;0.80;;;;;;;;;;5051948;28;20049;-74
2023/09/19 10:25:51;;;;;;;3.28;0.77;;;;;;;;;;5051975;28;20077;-73
2023/09/19 10:28:22;;;;;;;1.98;0.63;;;;;;;;;;5052285;28;20049;-73
2023/09/19 10:30:51;;;;;;;2.10;0.80;;;;;;;;;;5051833;28;20523;-73
2023/09/19 10:33:21;;;;;;;3.35;0.77;;;;;;;;;;5052041;28;20124;-74
2023/09/19 10:35:59;;;;;;;7.15;1.02;;;;;;;;;;5051040;28;20135;-74
2023/09/19 10:38:28;;;;;;;3.30;1.35;;;;;;;;;;5051581;28;20115;-74
2023/09/19 10:41:00;;;;;;;2.63;0.80;;;;;;;;;;5052026;28;20053;-74
2023/09/19 10:43:32;;;;;;;5.82;0.90;;;;;;;;;;5051602;28;20081;-73
2023/09/19 10:46:07;;;;;;;2.58;0.75;;;;;;;;;;5034586;28;20124;-74
2023/09/19 10:48:34;;;;;;;1.27;0.60;;;;;;;;;;5051658;28;20140;-73
2023/09/19 10:51:04;;;;;;;1.80;0.85;;;;;;;;;;5051184;28;20077;-72
2023/09/19 10:53:46;;;;;;;4.97;0.68;;;;;;;;;;5051191;28;20132;-74
2023/09/19 10:56:36;;;;;;;2.50;0.63;;;;;;;;;;5050282;28;20651;-74
2023/09/19 10:59:10;;;;;;;2.47;0.82;;;;;;;;;;5051495;28;20512;-74
2023/09/19 11:01:48;;;;;;;2.28;0.52;;;;;;;;;;5051456;28;20045;-72
2023/09/19 11:04:35;;;;;;;1.90;0.55;;;;;;;;;;5051177;28;20524;-73
2023/09/19 11:07:14;;;;;;;0.68;0.40;;;;;;;;;;5051534;28;20068;-73
2023/09/19 11:10:01;;;;;;;2.20;0.52;;;;;;;;;;5050935;28;20135;-72
2023/09/19 11:12:30;;;;;;;0.75;0.50;;;;;;;;;;5051282;28;20118;-74
2023/09/19 11:14:58;;;;;;;5.85;0.68;;;;;;;;;;5051194;28;20044;-74
2023/09/19 11:17:33;;;;;;;1.83;0.57;;;;;;;;;;5051465;28;20051;-74
2023/09/19 11:22:53;;;;;;;2.97;0.50;;;;;;;;;;5051286;28;20120;-74
2023/09/19 11:25:41;;;;;;;2.05;0.70;;;;;;;;;;5050901;28;20045;-72
2023/09/19 11:30:39;;;;;;;2.20;0.70;;;;;;;;;;5050781;28;20049;-72
2023/09/19 11:36:15;;;;;;;4.88;0.75;;;;;;;;;;5050712;28;20431;-73
2023/09/19 11:38:43;;;;;;;1.83;0.80;;;;;;;;;;5051122;28;20055;-73
2023/09/19 11:41:26;;;;;;;2.17;0.70;;;;;;;;;;5050493;28;20485;-73
2023/09/19 11:44:16;;;;;;;1.70;0.75;;;;;;;;;;5050885;28;20048;-73
2023/09/19 11:46:55;;;;;;;2.00;0.70;;;;;;;;;;5050219;28;20044;-73
2023/09/19 11:49:32;;;;;;;1.67;0.60;;;;;;;;;;5050511;28;20076;-73
2023/09/19 11:52:01;;;;;;;1.35;0.45;;;;;;;;;;5030343;28;20053;-73
2023/09/19 11:54:31;;;;;;;2.00;0.70;;;;;;;;;;5030382;28;20045;-74
2023/09/19 11:56:59;;;;;;;6.20;2.75;;;;;;;;;;5030467;28;20045;-72
2023/09/19 11:59:30;;;;;;;1.67;0.60;;;;;;;;;;5030597;28;20064;-70
2023/09/19 12:02:00;;;;;;;2.00;0.55;;;;;;;;;;5030344;28;20042;-74
2023/09/19 12:04:38;;;;;;;0.77;0.63;;;;;;;;;;5030042;28;20041;-74
2023/09/19 12:07:10;;;;;;;2.05;0.60;;;;;;;;;;5030424;28;20049;-73
2023/09/19 12:09:43;;;;;;;1.08;0.50;;;;;;;;;;5030483;28;20072;-74
2023/09/19 12:12:15;;;;;;;1.88;0.47;;;;;;;;;;5029987;28;20508;-74
2023/09/19 12:14:47;;;;;;;2.00;0.40;;;;;;;;;;5030551;28;20049;-73
2023/09/19 12:17:14;;;;;;;1.50;0.60;;;;;;;;;;5030236;28;20060;-73
2023/09/19 12:19:51;;;;;;;2.97;0.68;;;;;;;;;;5030089;28;20047;-73
2023/09/19 12:22:20;;;;;;;1.50;0.32;;;;;;;;;;5029879;28;20049;-73
2023/09/19 12:24:47;;;;;;;1.58;0.70;;;;;;;;;;5030252;28;20124;-73
2023/09/19 12:27:15;;;;;;;2.05;0.60;;;;;;;;;;5029985;28;20072;-70
2023/09/19 12:29:49;;;;;;;2.28;0.82;;;;;;;;;;5030401;28;20128;-72
2023/09/19 12:32:17;;;;;;;2.97;0.80;;;;;;;;;;5029843;28;20050;-74
2023/09/19 12:34:52;;;;;;;2.08;0.60;;;;;;;;;;5029848;28;20055;-73
2023/09/19 12:37:27;;;;;;;1.77;0.70;;;;;;;;;;5029886;28;20045;-74
2023/09/19 12:40:14;;;;;;;3.08;0.60;;;;;;;;;;5029648;28;20045;-73
2023/09/19 12:42:42;;;;;;;1.83;0.57;;;;;;;;;;5029652;28;20413;-74
2023/09/19 12:45:09;;;;;;;1.80;0.60;;;;;;;;;;5029798;28;20137;-73
2023/09/19 12:47:36;;;;;;;2.15;0.50;;;;;;;;;;5029878;28;20077;-74
2023/09/19 12:50:13;;;;;;;1.38;0.70;;;;;;;;;;5034597;28;20057;-75
2023/09/19 12:52:47;;;;;;;1.65;0.60;;;;;;;;;;5049161;28;20497;-73
2023/09/19 12:55:42;;;;;;;3.05;0.60;;;;;;;;;;5049359;28;20468;-74
2023/09/19 12:58:12;;;;;;;3.17;1.20;;;;;;;;;;5047036;28;20098;-74
2023/09/19 13:00:44;;;;;;;1.52;0.60;;;;;;;;;;5048637;28;20067;-73
2023/09/19 13:03:15;;;;;;;2.13;0.50;;;;;;;;;;5049559;28;20408;-74
2023/09/19 13:05:57;;;;;;;3.28;0.63;;;;;;;;;;5049465;28;20041;-74
2023/09/19 13:08:38;;;;;;;1.17;0.50;;;;;;;;;;5049227;28;20045;-75
2023/09/19 13:11:12;;;;;;;1.48;0.50;;;;;;;;;;5049004;28;20049;-74
2023/09/19 13:13:53;;;;;;;1.65;0.60;;;;;;;;;;5049560;28;20076;-74
2023/09/19 13:16:25;;;;;;;2.20;0.75;;;;;;;;;;5049217;28;20073;-74
2023/09/19 13:18:57;;;;;;;1.92;0.50;;;;;;;;;;5049347;28;20041;-74
2023/09/19 13:21:30;;;;;;;2.33;0.70;;;;;;;;;;5049372;28;20072;-74
2023/09/19 13:24:27;;;;;;;1.27;0.50;;;;;;;;;;5049428;28;20136;-75
2023/09/19 13:26:57;;;;;;;1.83;0.40;;;;;;;;;;5049074;28;20053;-73
2023/09/19 13:29:23;;;;;;;1.98;0.60;;;;;;;;;;5049363;28;20131;-73
2023/09/19 13:31:52;;;;;;;1.00;0.47;;;;;;;;;;5048959;28;20056;-74
2023/09/19 13:34:20;;;;;;;1.75;0.60;;;;;;;;;;5048962;28;20049;-75
2023/09/19 13:36:48;;;;;;;1.45;0.50;;;;;;;;;;5049212;28;20041;-74
2023/09/19 13:39:16;;;;;;;1.77;0.50;;;;;;;;;;5049407;28;20139;-74
2023/09/19 13:41:47;;;;;;;2.95;0.60;;;;;;;;;;5048965;28;20150;-74
2023/09/19 13:44:16;;;;;;;1.58;0.60;;;;;;;;;;5048903;28;20132;-73
2023/09/19 13:46:45;;;;;;;2.27;0.50;;;;;;;;;;5049103;28;20091;-72
2023/09/19 13:49:13;;;;;;;;;;;;;;;;;;5049372;28;20041;-72
2023/09/19 13:51:43;;;;;;;1.40;0.68;;;;;;;;;;5048453;28;19920;-74
2023/09/19 13:54:11;;;;;;;1.83;0.70;;;;;;;;;;5048699;28;20041;-74
2023/09/19 13:56:38;;;;;;;1.23;0.50;;;;;;;;;;5048887;28;20045;-72
2023/09/19 13:59:06;;;;;;;0.70;0.50;;;;;;;;;;5049234;28;20098;-74
2023/09/19 14:01:33;;;;;;;0.90;0.50;;;;;;;;;;5048717;28;20052;-74
2023/09/19 14:04:00;;;;;;;0.90;0.50;;;;;;;;;;5049188;28;20051;-74
2023/09/19 14:06:26;;;;;;;2.03;0.68;;;;;;;;;;5048576;28;20060;-74
2023/09/19 14:08:53;;;;;;;1.52;0.70;;;;;;;;;;5048622;28;20052;-74
2023/09/19 14:11:20;;;;;;;2.13;0.70;;;;;;;;;;5050508;28;20106;-73
2023/09/19 14:13:48;;;;;;;2.20;0.70;;;;;;;;;;5052769;28;20055;-74
2023/09/19 14:16:16;;;;;;;3.93;0.70;;;;;;;;;;5052288;28;20053;-74
2023/09/19 14:18:46;;;;;;;2.83;0.70;;;;;;;;;;5052209;28;20047;-73
2023/09/19 14:21:12;;;;;;;2.00;0.53;;;;;;;;;;5052804;28;20045;-74
2023/09/19 14:23:39;;;;;;;1.80;0.60;;;;;;;;;;5052164;28;20049;-74
2023/09/19 14:26:06;;;;;;;1.40;0.47;;;;;;;;;;5052185;28;20065;-73
2023/09/19 14:28:36;;;;;;;1.38;0.60;;;;;;;;;;5052037;28;20107;-74
2023/09/19 14:31:10;;;;;;;1.35;0.60;;;;;;;;;;5052215;28;20056;-74
2023/09/19 14:33:38;;;;;;;2.78;0.60;;;;;;;;;;5051995;28;20045;-74
2023/09/19 14:36:08;;;;;;;2.53;0.68;;;;;;;;;;5051578;28;20489;-74
2023/09/19 14:38:37;;;;;;;1.00;0.60;;;;;;;;;;5052048;28;20275;-74
2023/09/19 14:41:05;;;;;;;1.38;0.60;;;;;;;;;;5052264;28;20095;-75
2023/09/19 14:43:32;;;;;;;1.67;0.70;;;;;;;;;;5051888;28;20064;-73
2023/09/19 14:46:03;;;;;;;1.30;0.77;;;;;;;;;;5051703;28;20051;-73
2023/09/19 14:48:30;;;;;;;0.93;0.60;;;;;;;;;;5051942;28;20052;-74
2023/09/19 14:51:05;;;;;;;1.40;0.65;;;;;;;;;;5051531;28;20507;-74
2023/09/19 14:53:32;;;;;;;1.80;0.65;;;;;;;;;;5051516;28;20052;-73
2023/09/19 14:56:03;;;;;;;1.90;0.65;;;;;;;;;;5051562;28;20045;-74
2023/09/19 14:58:33;;;;;;;1.58;0.63;;;;;;;;;;5051255;28;20048;-74
2023/09/19 15:01:04;;;;;;;1.63;0.65;;;;;;;;;;5051721;28;20048;-74
2023/09/19 15:03:32;;;;;;;1.83;0.70;;;;;;;;;;5051104;28;20044;-75
2023/09/19 15:06:14;;;;;;;1.23;0.70;;;;;;;;;;5051493;28;20114;-73
2023/09/19 15:08:45;;;;;;;1.73;0.73;;;;;;;;;;5051515;28;20045;-74
2023/09/19 15:11:18;;;;;;;2.65;0.80;;;;;;;;;;5051626;28;20045;-73
2023/09/19 15:13:46;;;;;;;3.30;0.80;;;;;;;;;;5049975;28;20529;-70
2023/09/19 15:16:13;;;;;;;3.92;0.80;;;;;;;;;;5051263;28;20307;-73
2023/09/19 15:18:42;;;;;;;1.55;0.60;;;;;;;;;;5050890;28;20460;-72
2023/09/19 15:21:11;;;;;;;4.13;0.73;;;;;;;;;;5051041;28;20044;-71